Time;durP1;ratioP1;P1;durP2;ratioP2;P2;SDS_P1;SDS_P2;PMS_P1;PMS_P2;Temp;Humidity;BMP_temperature;BMP_pressure;BME280_temperature;BME280_humidity;BME280_pressure;Samples;Min_cycle;Max_cycle;Signal;HPM_P1;HPM_P2
2023/10/05 00:01:12;;;;;;;9.30;6.05;;;;;;;;;;5002986;28;20037;-61
2023/10/05 00:03:44;;;;;;;9.15;5.75;;;;;;;;;;4985245;28;20061;-62
2023/10/05 00:06:16;;;;;;;8.32;6.03;;;;;;;;;;4985272;28;20026;-62
2023/10/05 00:08:47;;;;;;;9.50;5.40;;;;;;;;;;4978677;28;20042;-65
2023/10/05 00:11:22;;;;;;;9.95;5.65;;;;;;;;;;4963489;28;20479;-62
2023/10/05 00:13:48;;;;;;;7.50;5.30;;;;;;;;;;4971459;28;20038;-63
2023/10/05 00:16:20;;;;;;;9.27;5.82;;;;;;;;;;4986272;28;20281;-61
2023/10/05 00:18:45;;;;;;;7.07;5.50;;;;;;;;;;4983737;28;20054;-65
2023/10/05 00:21:11;;;;;;;7.90;5.37;;;;;;;;;;4985990;28;20687;-63
2023/10/05 00:23:36;;;;;;;10.07;6.18;;;;;;;;;;4985582;28;20281;-64
2023/10/05 00:26:02;;;;;;;10.20;5.10;;;;;;;;;;4977897;28;20462;-64
2023/10/05 00:28:29;;;;;;;9.95;5.32;;;;;;;;;;4978514;28;20158;-64
2023/10/05 00:30:54;;;;;;;7.15;5.30;;;;;;;;;;4981109;28;20121;-63
2023/10/05 00:33:20;;;;;;;10.23;6.15;;;;;;;;;;4986660;28;20117;-61
2023/10/05 00:35:47;;;;;;;8.25;6.13;;;;;;;;;;4985958;28;20546;-63
2023/10/05 00:38:14;;;;;;;10.30;6.10;;;;;;;;;;4986362;28;20034;-63
2023/10/05 00:40:43;;;;;;;8.95;5.35;;;;;;;;;;4984853;28;20096;-68
2023/10/05 00:45:52;;;;;;;9.23;6.10;;;;;;;;;;4986570;28;20041;-64
2023/10/05 00:48:34;;;;;;;9.20;5.80;;;;;;;;;;4983888;28;20042;-66
2023/10/05 00:50:59;;;;;;;9.00;5.55;;;;;;;;;;4976812;28;20499;-60
2023/10/05 00:53:27;;;;;;;9.20;5.57;;;;;;;;;;4984817;28;20191;-64
2023/10/05 00:55:58;;;;;;;9.88;5.63;;;;;;;;;;4984386;28;20054;-61
2023/10/05 00:58:34;;;;;;;8.77;5.28;;;;;;;;;;4986284;28;20030;-61
2023/10/05 01:01:05;;;;;;;8.82;5.10;;;;;;;;;;4984913;28;20042;-69
2023/10/05 01:03:44;;;;;;;9.63;5.45;;;;;;;;;;4984617;28;20550;-63
2023/10/05 01:06:26;;;;;;;8.43;5.63;;;;;;;;;;4981203;28;20097;-64
2023/10/05 01:08:59;;;;;;;10.57;5.60;;;;;;;;;;4972235;28;20043;-65
2023/10/05 01:11:42;;;;;;;9.23;5.47;;;;;;;;;;4969184;28;20026;-65
2023/10/05 01:14:08;;;;;;;8.45;5.43;;;;;;;;;;4999879;28;20453;-63
2023/10/05 01:16:34;;;;;;;8.38;5.88;;;;;;;;;;4985096;28;20030;-64
2023/10/05 01:19:07;;;;;;;10.02;5.38;;;;;;;;;;4985023;28;20073;-60
2023/10/05 01:21:34;;;;;;;9.10;5.15;;;;;;;;;;4985751;28;20135;-61
2023/10/05 01:23:59;;;;;;;9.32;5.72;;;;;;;;;;4973065;28;20546;-61
2023/10/05 01:26:24;;;;;;;9.60;5.45;;;;;;;;;;4985944;28;20082;-62
2023/10/05 01:28:50;;;;;;;9.93;5.53;;;;;;;;;;4986251;28;20542;-63
2023/10/05 01:31:16;;;;;;;7.80;5.40;;;;;;;;;;4985903;28;20035;-61
2023/10/05 01:33:43;;;;;;;9.27;5.32;;;;;;;;;;4983713;28;20514;-62
2023/10/05 01:36:08;;;;;;;10.88;5.43;;;;;;;;;;4985379;28;20038;-61
2023/10/05 01:38:37;;;;;;;8.27;5.20;;;;;;;;;;4985837;28;20058;-60
2023/10/05 01:41:04;;;;;;;9.93;5.35;;;;;;;;;;4980921;28;20274;-62
2023/10/05 01:43:29;;;;;;;10.25;5.45;;;;;;;;;;4973207;28;20086;-62
2023/10/05 01:45:56;;;;;;;7.57;4.97;;;;;;;;;;4985720;28;20472;-63
2023/10/05 01:48:26;;;;;;;8.52;5.70;;;;;;;;;;4985541;28;20569;-61
2023/10/05 01:50:51;;;;;;;9.25;4.97;;;;;;;;;;4964871;28;20046;-65
2023/10/05 01:53:17;;;;;;;8.07;5.05;;;;;;;;;;4972509;28;20534;-63
2023/10/05 01:55:49;;;;;;;8.88;5.30;;;;;;;;;;4984516;28;20042;-61
2023/10/05 01:58:27;;;;;;;8.95;5.05;;;;;;;;;;4969381;28;20066;-61
2023/10/05 02:00:53;;;;;;;8.30;4.97;;;;;;;;;;4985177;28;20430;-61
2023/10/05 02:03:23;;;;;;;7.18;4.70;;;;;;;;;;4964909;28;20419;-60
2023/10/05 02:05:48;;;;;;;10.50;5.05;;;;;;;;;;4964996;28;20039;-62
2023/10/05 02:08:14;;;;;;;8.30;5.20;;;;;;;;;;4978510;28;20041;-63
2023/10/05 02:10:40;;;;;;;7.43;5.20;;;;;;;;;;4985882;28;20046;-65
2023/10/05 02:13:12;;;;;;;7.60;5.10;;;;;;;;;;4983530;28;20062;-61
2023/10/05 02:15:39;;;;;;;7.90;5.05;;;;;;;;;;4988988;28;20035;-61
2023/10/05 02:18:13;;;;;;;8.10;5.10;;;;;;;;;;4990547;28;20330;-61
2023/10/05 02:20:41;;;;;;;7.55;4.85;;;;;;;;;;4989317;28;20073;-62
2023/10/05 02:23:16;;;;;;;8.00;4.70;;;;;;;;;;4968546;28;20050;-60
2023/10/05 02:25:42;;;;;;;8.25;4.22;;;;;;;;;;4986461;28;20030;-62
2023/10/05 02:28:08;;;;;;;8.32;4.70;;;;;;;;;;4987455;28;20046;-61
2023/10/05 02:30:33;;;;;;;7.40;4.75;;;;;;;;;;4987577;28;20023;-61
2023/10/05 02:32:59;;;;;;;9.38;5.15;;;;;;;;;;4989056;28;20513;-62
2023/10/05 02:35:29;;;;;;;7.70;4.38;;;;;;;;;;4988610;28;20038;-61
2023/10/05 02:37:54;;;;;;;;;;;;;;;;;;4984963;28;20051;-61
2023/10/05 02:40:35;;;;;;;7.47;4.83;;;;;;;;;;4984010;28;20355;-70
2023/10/05 02:43:05;;;;;;;7.07;4.47;;;;;;;;;;4987913;28;20041;-66
2023/10/05 02:45:31;;;;;;;8.40;4.93;;;;;;;;;;4988587;28;20018;-62
2023/10/05 02:47:57;;;;;;;7.13;4.70;;;;;;;;;;4986097;28;20069;-61
2023/10/05 02:50:22;;;;;;;6.95;4.68;;;;;;;;;;4986845;28;20054;-61
2023/10/05 02:52:48;;;;;;;7.00;5.00;;;;;;;;;;4988183;28;20072;-61
2023/10/05 02:55:14;;;;;;;8.02;4.53;;;;;;;;;;4988206;28;20452;-61
2023/10/05 02:57:40;;;;;;;7.43;4.57;;;;;;;;;;4985173;28;20058;-63
2023/10/05 03:00:08;;;;;;;7.38;4.68;;;;;;;;;;4988088;28;20455;-62
2023/10/05 03:02:37;;;;;;;6.88;4.68;;;;;;;;;;4986314;28;20088;-62
2023/10/05 03:05:07;;;;;;;8.47;4.87;;;;;;;;;;4986472;28;20026;-68
2023/10/05 03:07:32;;;;;;;7.97;4.57;;;;;;;;;;4988689;28;20301;-62
2023/10/05 03:10:00;;;;;;;8.77;4.63;;;;;;;;;;4999026;28;20041;-62
2023/10/05 03:12:25;;;;;;;8.05;4.82;;;;;;;;;;4984007;28;20278;-61
2023/10/05 03:14:51;;;;;;;8.93;4.65;;;;;;;;;;4967186;28;20069;-61
2023/10/05 03:17:20;;;;;;;9.05;4.68;;;;;;;;;;4967264;28;20066;-63
2023/10/05 03:19:45;;;;;;;7.95;4.50;;;;;;;;;;4964616;28;20483;-63
2023/10/05 03:22:13;;;;;;;7.28;4.78;;;;;;;;;;4977861;28;20038;-61
2023/10/05 03:24:44;;;;;;;8.77;4.93;;;;;;;;;;5001353;28;20042;-64
2023/10/05 03:27:09;;;;;;;9.70;5.30;;;;;;;;;;5002844;28;20038;-61
2023/10/05 03:29:35;;;;;;;8.77;4.53;;;;;;;;;;4988220;28;20497;-64
2023/10/05 03:34:35;;;;;;;7.15;4.68;;;;;;;;;;4985481;28;20386;-64
2023/10/05 03:37:13;;;;;;;9.13;4.65;;;;;;;;;;4987217;28;20030;-65
2023/10/05 03:40:02;;;;;;;10.38;4.43;;;;;;;;;;5002039;28;20050;-61
2023/10/05 03:42:28;;;;;;;8.48;4.70;;;;;;;;;;4986581;28;20392;-62
2023/10/05 03:45:09;;;;;;;8.07;4.30;;;;;;;;;;4982847;28;20166;-62
2023/10/05 03:47:37;;;;;;;8.45;4.80;;;;;;;;;;4983028;28;20074;-61
2023/10/05 03:50:03;;;;;;;8.63;4.75;;;;;;;;;;4987419;28;20431;-64
2023/10/05 03:52:32;;;;;;;8.32;4.50;;;;;;;;;;4984974;28;20034;-65
2023/10/05 03:55:01;;;;;;;10.77;4.80;;;;;;;;;;4987324;28;20046;-63
2023/10/05 03:57:30;;;;;;;9.70;4.88;;;;;;;;;;4980769;28;20129;-64
2023/10/05 03:59:57;;;;;;;7.47;4.28;;;;;;;;;;4969710;28;20058;-62
2023/10/05 04:02:23;;;;;;;7.95;4.50;;;;;;;;;;4986281;28;20109;-61
2023/10/05 04:04:49;;;;;;;8.13;4.43;;;;;;;;;;4986747;28;20031;-68
2023/10/05 04:07:15;;;;;;;7.70;4.30;;;;;;;;;;4982174;28;20042;-65
2023/10/05 04:09:41;;;;;;;8.32;5.03;;;;;;;;;;4983593;28;20030;-64
2023/10/05 04:12:10;;;;;;;10.60;4.95;;;;;;;;;;4967520;28;20045;-68
2023/10/05 04:14:37;;;;;;;9.95;5.10;;;;;;;;;;4986695;28;20463;-61
2023/10/05 04:17:07;;;;;;;8.60;4.82;;;;;;;;;;4987245;28;20030;-62
2023/10/05 04:19:33;;;;;;;8.50;4.90;;;;;;;;;;4992443;28;20049;-62
2023/10/05 04:21:59;;;;;;;7.43;4.72;;;;;;;;;;4986540;28;20030;-61
2023/10/05 04:24:26;;;;;;;8.70;4.60;;;;;;;;;;4986461;28;20053;-62
2023/10/05 04:26:52;;;;;;;8.98;4.60;;;;;;;;;;4985961;28;20050;-62
2023/10/05 04:29:20;;;;;;;7.50;4.50;;;;;;;;;;4983897;28;20474;-66
2023/10/05 04:31:49;;;;;;;9.15;4.60;;;;;;;;;;4953151;28;20258;-59
2023/10/05 04:34:18;;;;;;;6.53;4.40;;;;;;;;;;4959733;28;20019;-58
2023/10/05 04:36:43;;;;;;;8.73;4.22;;;;;;;;;;4971465;28;20418;-62
2023/10/05 04:39:12;;;;;;;6.63;4.10;;;;;;;;;;4971987;28;20042;-58
2023/10/05 04:41:39;;;;;;;6.95;3.88;;;;;;;;;;4973589;28;20238;-58
2023/10/05 04:44:12;;;;;;;8.10;4.32;;;;;;;;;;4976981;28;20023;-59
2023/10/05 04:46:41;;;;;;;6.65;4.28;;;;;;;;;;4993083;28;20043;-58
2023/10/05 04:49:09;;;;;;;7.50;4.03;;;;;;;;;;4979482;28;20031;-58
2023/10/05 04:51:35;;;;;;;7.63;4.25;;;;;;;;;;4964324;28;20084;-58
2023/10/05 04:54:01;;;;;;;8.35;4.47;;;;;;;;;;4971613;28;20563;-59
2023/10/05 04:57:22;;;;;;;5.93;4.13;;;;;;;;;;4971396;28;20626;-62
2023/10/05 05:07:00;;;;;;;7.93;3.95;;;;;;;;;;4971861;28;20046;-65
2023/10/05 05:09:34;;;;;;;7.85;3.67;;;;;;;;;;4975099;28;20462;-60
2023/10/05 05:12:05;;;;;;;7.45;3.75;;;;;;;;;;4963182;28;20045;-60
2023/10/05 05:14:33;;;;;;;7.78;4.00;;;;;;;;;;4971787;28;20060;-59
2023/10/05 05:16:59;;;;;;;7.45;4.07;;;;;;;;;;4977647;28;20031;-60
2023/10/05 05:19:25;;;;;;;6.82;3.90;;;;;;;;;;4973772;28;20416;-59
2023/10/05 05:21:50;;;;;;;6.10;3.72;;;;;;;;;;4972444;28;20122;-61
2023/10/05 05:24:15;;;;;;;5.85;3.40;;;;;;;;;;4970522;28;21608;-60
2023/10/05 05:26:41;;;;;;;10.27;4.23;;;;;;;;;;4973982;28;20382;-60
2023/10/05 05:29:07;;;;;;;9.20;4.10;;;;;;;;;;4973782;28;20294;-61
2023/10/05 05:31:33;;;;;;;12.27;4.72;;;;;;;;;;4972841;28;20035;-60
2023/10/05 05:33:59;;;;;;;15.37;5.63;;;;;;;;;;4972427;28;20049;-60
2023/10/05 05:36:24;;;;;;;12.38;4.57;;;;;;;;;;4971859;28;20675;-58
2023/10/05 05:38:52;;;;;;;9.77;5.05;;;;;;;;;;4969009;28;20058;-62
2023/10/05 05:41:21;;;;;;;10.18;4.40;;;;;;;;;;4969526;28;20041;-62
2023/10/05 05:43:46;;;;;;;10.57;4.25;;;;;;;;;;4973481;28;20085;-65
2023/10/05 05:46:13;;;;;;;9.45;4.03;;;;;;;;;;4975213;28;20159;-64
2023/10/05 05:48:48;;;;;;;8.55;4.18;;;;;;;;;;4973935;28;20136;-64
2023/10/05 05:51:23;;;;;;;7.60;4.32;;;;;;;;;;4975647;28;20046;-66
2023/10/05 05:53:48;;;;;;;6.93;3.70;;;;;;;;;;4970583;28;20026;-66
2023/10/05 05:56:19;;;;;;;8.15;3.92;;;;;;;;;;4955290;28;20156;-62
2023/10/05 05:58:47;;;;;;;10.32;4.10;;;;;;;;;;4956587;28;20043;-64
2023/10/05 06:01:20;;;;;;;7.38;3.67;;;;;;;;;;4966282;28;20114;-64
2023/10/05 06:03:48;;;;;;;6.65;3.80;;;;;;;;;;4959813;28;20026;-63
2023/10/05 06:06:14;;;;;;;8.80;4.28;;;;;;;;;;4972405;28;20027;-64
2023/10/05 06:08:41;;;;;;;10.35;4.25;;;;;;;;;;4973578;28;20057;-64
2023/10/05 06:11:08;;;;;;;11.73;4.68;;;;;;;;;;4953828;28;20027;-65
2023/10/05 06:13:36;;;;;;;13.65;4.95;;;;;;;;;;4970804;28;20041;-65
2023/10/05 06:16:03;;;;;;;12.07;4.50;;;;;;;;;;4972650;28;20121;-62
2023/10/05 06:18:31;;;;;;;16.92;4.78;;;;;;;;;;4975746;28;21739;-66
2023/10/05 06:20:56;;;;;;;13.48;4.60;;;;;;;;;;4968853;28;20042;-65
2023/10/05 06:23:22;;;;;;;8.57;4.18;;;;;;;;;;4965073;28;20411;-63
2023/10/05 06:25:48;;;;;;;11.48;4.53;;;;;;;;;;4956120;28;20035;-65
2023/10/05 06:28:13;;;;;;;13.02;4.18;;;;;;;;;;4972780;28;20035;-63
2023/10/05 06:30:39;;;;;;;14.05;4.05;;;;;;;;;;4973746;28;20045;-65
2023/10/05 06:33:07;;;;;;;10.68;4.53;;;;;;;;;;4960479;28;20171;-64
2023/10/05 06:35:32;;;;;;;10.15;4.22;;;;;;;;;;4965496;28;20104;-62
2023/10/05 06:37:58;;;;;;;10.65;4.28;;;;;;;;;;4973538;28;20022;-64
2023/10/05 06:40:23;;;;;;;8.55;3.80;;;;;;;;;;4973250;28;20385;-63
2023/10/05 06:42:49;;;;;;;10.52;4.07;;;;;;;;;;4974486;28;20187;-65
2023/10/05 06:45:15;;;;;;;8.93;3.10;;;;;;;;;;4975378;28;20039;-63
2023/10/05 06:47:40;;;;;;;7.15;3.17;;;;;;;;;;4963743;28;20043;-64
2023/10/05 06:50:09;;;;;;;7.57;3.58;;;;;;;;;;4964400;28;20038;-62
2023/10/05 06:52:43;;;;;;;8.02;3.63;;;;;;;;;;4974390;28;20189;-63
2023/10/05 06:55:11;;;;;;;8.02;3.28;;;;;;;;;;4959673;28;20542;-63
2023/10/05 06:57:37;;;;;;;10.13;3.67;;;;;;;;;;4975690;28;20957;-62
2023/10/05 07:00:11;;;;;;;7.80;3.53;;;;;;;;;;4965979;28;20042;-63
2023/10/05 07:02:38;;;;;;;8.82;3.70;;;;;;;;;;4953708;28;20118;-64
2023/10/05 07:05:05;;;;;;;8.80;3.17;;;;;;;;;;4953785;28;20038;-65
2023/10/05 07:07:31;;;;;;;6.63;3.10;;;;;;;;;;4961243;28;20035;-63
2023/10/05 07:09:57;;;;;;;6.88;3.15;;;;;;;;;;4973520;28;20241;-64
2023/10/05 07:12:23;;;;;;;6.15;3.13;;;;;;;;;;4980595;28;20031;-61
2023/10/05 07:14:49;;;;;;;7.03;3.33;;;;;;;;;;4979884;28;20042;-62
2023/10/05 07:17:16;;;;;;;10.95;3.28;;;;;;;;;;4979079;28;20518;-63
2023/10/05 07:19:42;;;;;;;8.82;3.83;;;;;;;;;;4985727;28;20344;-63
2023/10/05 07:22:09;;;;;;;7.38;3.65;;;;;;;;;;4977686;28;20062;-63
2023/10/05 07:24:34;;;;;;;7.05;3.05;;;;;;;;;;4961390;28;20089;-62
2023/10/05 07:27:00;;;;;;;8.77;3.08;;;;;;;;;;4974030;28;20066;-65
2023/10/05 07:29:26;;;;;;;8.75;3.15;;;;;;;;;;4973712;28;20035;-62
2023/10/05 07:31:51;;;;;;;4.78;2.67;;;;;;;;;;4973149;28;20586;-62
2023/10/05 07:34:16;;;;;;;5.85;3.00;;;;;;;;;;4972654;28;20042;-61
2023/10/05 07:36:42;;;;;;;7.13;3.30;;;;;;;;;;4968678;28;20043;-62
2023/10/05 07:39:11;;;;;;;6.83;3.23;;;;;;;;;;4961699;28;20046;-63
2023/10/05 07:41:36;;;;;;;7.07;2.80;;;;;;;;;;4976973;28;20423;-62
2023/10/05 07:44:02;;;;;;;10.82;3.28;;;;;;;;;;4986068;28;20281;-62
2023/10/05 07:46:27;;;;;;;5.20;2.95;;;;;;;;;;4985938;28;20031;-61
2023/10/05 07:48:53;;;;;;;6.30;2.80;;;;;;;;;;4987055;28;20022;-62
2023/10/05 07:51:18;;;;;;;7.90;2.93;;;;;;;;;;4987433;28;20285;-66
2023/10/05 07:53:43;;;;;;;7.73;3.30;;;;;;;;;;4982808;28;20781;-61
2023/10/05 07:56:09;;;;;;;6.30;3.00;;;;;;;;;;4972311;28;20329;-64
2023/10/05 07:58:34;;;;;;;5.13;2.53;;;;;;;;;;4987221;28;20104;-62
2023/10/05 08:01:00;;;;;;;7.53;2.90;;;;;;;;;;4986883;28;20039;-64
2023/10/05 08:03:25;;;;;;;6.20;2.90;;;;;;;;;;4985706;28;20042;-62
2023/10/05 08:05:50;;;;;;;5.93;2.78;;;;;;;;;;4986141;28;20377;-62
2023/10/05 08:08:15;;;;;;;7.00;3.03;;;;;;;;;;4985465;28;20070;-62
2023/10/05 08:10:41;;;;;;;5.00;2.60;;;;;;;;;;4987015;28;20282;-65
2023/10/05 08:13:06;;;;;;;6.75;2.67;;;;;;;;;;4982201;28;20050;-62
2023/10/05 08:15:33;;;;;;;4.45;2.60;;;;;;;;;;4978927;28;20056;-63
2023/10/05 08:17:59;;;;;;;9.15;3.03;;;;;;;;;;4989101;28;20121;-65
2023/10/05 08:20:26;;;;;;;6.32;2.92;;;;;;;;;;4989795;28;20125;-62
2023/10/05 08:22:51;;;;;;;5.95;3.03;;;;;;;;;;4985126;28;20039;-62
2023/10/05 08:25:17;;;;;;;6.40;3.00;;;;;;;;;;4984054;28;20060;-62
2023/10/05 08:27:48;;;;;;;5.63;2.80;;;;;;;;;;4985332;28;20281;-62
2023/10/05 08:30:14;;;;;;;6.75;3.00;;;;;;;;;;4985668;28;20526;-61
2023/10/05 08:32:39;;;;;;;6.63;3.15;;;;;;;;;;4985741;28;20038;-64
2023/10/05 08:35:13;;;;;;;7.32;3.10;;;;;;;;;;4984844;28;20598;-62
2023/10/05 08:37:48;;;;;;;5.25;2.92;;;;;;;;;;4985392;28;20196;-62
2023/10/05 08:43:08;;;;;;;8.18;3.47;;;;;;;;;;4984177;28;20100;-65
2023/10/05 08:45:34;;;;;;;7.28;3.25;;;;;;;;;;4983777;28;20034;-64
2023/10/05 08:48:00;;;;;;;5.38;3.25;;;;;;;;;;4979836;28;20914;-61
2023/10/05 08:50:25;;;;;;;7.63;3.05;;;;;;;;;;4984874;28;20442;-64
2023/10/05 08:52:50;;;;;;;5.63;3.20;;;;;;;;;;4983862;28;20033;-63
2023/10/05 08:55:16;;;;;;;5.97;3.30;;;;;;;;;;4982889;28;20132;-62
2023/10/05 08:57:42;;;;;;;7.13;3.40;;;;;;;;;;4980339;28;20304;-62
2023/10/05 09:00:08;;;;;;;5.00;2.83;;;;;;;;;;4983718;28;20057;-63
2023/10/05 09:02:36;;;;;;;6.90;3.45;;;;;;;;;;4973226;28;20018;-62
2023/10/05 09:05:07;;;;;;;5.28;2.90;;;;;;;;;;4998828;28;20010;-61
2023/10/05 09:07:38;;;;;;;5.78;2.92;;;;;;;;;;4979849;28;20509;-63
2023/10/05 09:10:05;;;;;;;5.95;3.45;;;;;;;;;;4983462;28;20061;-61
2023/10/05 09:15:03;;;;;;;6.95;3.22;;;;;;;;;;4985073;28;20030;-61
2023/10/05 09:17:28;;;;;;;6.85;3.25;;;;;;;;;;4995720;28;20038;-61
2023/10/05 09:19:55;;;;;;;6.65;3.33;;;;;;;;;;4984557;28;20136;-61
2023/10/05 09:22:23;;;;;;;7.63;3.75;;;;;;;;;;4982953;28;21175;-61
2023/10/05 09:24:52;;;;;;;6.18;3.40;;;;;;;;;;4965257;28;20114;-63
2023/10/05 09:27:19;;;;;;;6.90;3.78;;;;;;;;;;4955834;28;20529;-63
2023/10/05 09:29:44;;;;;;;7.55;3.83;;;;;;;;;;4972220;28;20062;-60
2023/10/05 09:32:23;;;;;;;7.95;4.03;;;;;;;;;;4956124;28;20463;-61
2023/10/05 09:34:56;;;;;;;6.53;4.05;;;;;;;;;;4951016;28;20054;-65
2023/10/05 09:37:24;;;;;;;9.02;4.68;;;;;;;;;;4952007;28;20077;-62
2023/10/05 09:39:49;;;;;;;11.15;4.65;;;;;;;;;;4975769;28;20597;-60
2023/10/05 09:42:16;;;;;;;11.18;4.90;;;;;;;;;;4974365;28;20034;-60
2023/10/05 09:45:08;;;;;;;10.50;4.55;;;;;;;;;;4976537;28;20088;-63
2023/10/05 09:47:34;;;;;;;8.05;4.55;;;;;;;;;;4970737;28;20034;-64
2023/10/05 09:50:00;;;;;;;10.90;5.28;;;;;;;;;;4978183;28;20023;-63
2023/10/05 09:52:35;;;;;;;9.60;4.68;;;;;;;;;;4972374;28;20034;-63
2023/10/05 09:55:04;;;;;;;9.63;5.07;;;;;;;;;;4972076;28;21940;-60
2023/10/05 09:57:29;;;;;;;10.43;5.18;;;;;;;;;;4953157;28;20038;-60
2023/10/05 09:59:58;;;;;;;13.60;5.35;;;;;;;;;;4968890;28;20556;-61
2023/10/05 10:02:27;;;;;;;10.00;4.80;;;;;;;;;;4959132;28;20050;-62
2023/10/05 10:04:53;;;;;;;11.15;5.43;;;;;;;;;;4957847;28;20031;-63
2023/10/05 10:07:22;;;;;;;11.38;5.72;;;;;;;;;;4956225;28;20504;-63
2023/10/05 10:09:53;;;;;;;10.63;4.80;;;;;;;;;;4935042;28;20038;-61
2023/10/05 10:12:25;;;;;;;9.55;5.28;;;;;;;;;;4968745;28;20252;-61
2023/10/05 10:14:50;;;;;;;11.02;5.13;;;;;;;;;;4975447;28;20048;-61
2023/10/05 10:17:27;;;;;;;13.43;5.88;;;;;;;;;;4970942;28;20036;-62
2023/10/05 10:19:55;;;;;;;9.25;5.05;;;;;;;;;;4953300;28;20535;-62
2023/10/05 10:22:28;;;;;;;9.57;4.90;;;;;;;;;;4972516;28;20034;-62
2023/10/05 10:24:56;;;;;;;9.43;5.30;;;;;;;;;;4974451;28;20471;-62
2023/10/05 10:27:26;;;;;;;7.68;4.68;;;;;;;;;;4972675;28;20042;-62
2023/10/05 10:29:55;;;;;;;11.15;4.72;;;;;;;;;;4969103;28;20584;-62
2023/10/05 10:32:31;;;;;;;12.60;5.40;;;;;;;;;;4954958;28;20570;-62
2023/10/05 10:34:56;;;;;;;9.40;4.88;;;;;;;;;;4969349;28;20081;-62
2023/10/05 10:37:39;;;;;;;10.35;5.20;;;;;;;;;;4950170;28;20452;-61
2023/10/05 10:40:11;;;;;;;13.35;5.60;;;;;;;;;;4960894;28;20626;-63
2023/10/05 10:42:50;;;;;;;11.70;5.88;;;;;;;;;;4973080;28;20117;-61
2023/10/05 10:45:16;;;;;;;9.23;5.43;;;;;;;;;;4975280;28;20502;-64
2023/10/05 10:47:46;;;;;;;11.77;5.63;;;;;;;;;;4975482;28;20054;-61
2023/10/05 10:50:15;;;;;;;13.30;5.55;;;;;;;;;;4973123;28;21759;-63
2023/10/05 10:52:42;;;;;;;12.80;5.18;;;;;;;;;;4972481;28;20042;-62
2023/10/05 10:55:09;;;;;;;8.35;5.15;;;;;;;;;;4974341;28;20531;-61
2023/10/05 10:57:36;;;;;;;8.95;5.65;;;;;;;;;;4969809;28;20059;-60
2023/10/05 11:03:18;;;;;;;11.95;5.10;;;;;;;;;;4929245;28;20661;-60
2023/10/05 11:05:47;;;;;;;10.77;5.68;;;;;;;;;;4950370;28;20183;-61
2023/10/05 11:08:13;;;;;;;;;;;;;;;;;;4973273;28;20022;-61
2023/10/05 11:10:40;;;;;;;9.83;5.33;;;;;;;;;;4973085;28;19923;-61
2023/10/05 11:13:14;;;;;;;11.60;4.82;;;;;;;;;;4971896;28;20101;-62
2023/10/05 11:15:49;;;;;;;11.57;5.30;;;;;;;;;;4956897;28;20722;-60
2023/10/05 11:18:18;;;;;;;8.73;5.15;;;;;;;;;;4976083;28;20094;-63
2023/10/05 11:20:51;;;;;;;10.18;5.30;;;;;;;;;;4972998;28;20055;-61
2023/10/05 11:23:17;;;;;;;11.32;5.63;;;;;;;;;;4973275;28;20030;-61
2023/10/05 11:25:44;;;;;;;8.85;5.43;;;;;;;;;;4973505;28;20132;-61
2023/10/05 11:28:12;;;;;;;8.93;5.10;;;;;;;;;;4977618;28;20092;-60
2023/10/05 11:30:47;;;;;;;10.60;5.60;;;;;;;;;;4967976;28;20050;-61
2023/10/05 11:33:15;;;;;;;8.05;4.78;;;;;;;;;;4984203;28;20140;-62
2023/10/05 11:35:51;;;;;;;11.48;5.65;;;;;;;;;;4983060;28;20042;-61
2023/10/05 11:38:19;;;;;;;13.75;6.05;;;;;;;;;;4981091;28;20087;-61
2023/10/05 11:40:53;;;;;;;11.10;5.20;;;;;;;;;;4961288;28;20058;-62
2023/10/05 11:43:20;;;;;;;8.65;5.65;;;;;;;;;;4967759;28;20506;-60
2023/10/05 11:46:17;;;;;;;8.38;5.20;;;;;;;;;;4981464;28;20034;-61
2023/10/05 11:48:47;;;;;;;9.73;5.35;;;;;;;;;;4977201;28;20038;-60
2023/10/05 11:51:13;;;;;;;10.93;5.50;;;;;;;;;;4981629;28;20042;-60
2023/10/05 11:53:39;;;;;;;11.10;5.60;;;;;;;;;;4980757;28;20118;-60
2023/10/05 11:56:05;;;;;;;11.27;5.65;;;;;;;;;;4980307;28;20491;-61
2023/10/05 11:58:36;;;;;;;9.93;5.10;;;;;;;;;;4985222;28;20537;-61
2023/10/05 12:01:03;;;;;;;11.43;5.47;;;;;;;;;;4973858;28;20046;-61
2023/10/05 12:03:31;;;;;;;11.43;5.43;;;;;;;;;;4955835;28;20323;-61
2023/10/05 12:06:08;;;;;;;9.90;5.50;;;;;;;;;;4976041;28;20037;-60
2023/10/05 12:08:34;;;;;;;8.82;4.97;;;;;;;;;;4982627;28;20046;-61
2023/10/05 12:11:00;;;;;;;10.30;5.80;;;;;;;;;;4977274;28;20023;-59
2023/10/05 12:13:28;;;;;;;8.77;4.55;;;;;;;;;;4980853;28;20030;-60
2023/10/05 12:15:54;;;;;;;9.30;5.07;;;;;;;;;;4977637;28;20082;-61
2023/10/05 12:18:19;;;;;;;10.20;5.10;;;;;;;;;;4982758;28;20452;-60
2023/10/05 12:20:46;;;;;;;10.18;5.13;;;;;;;;;;4981159;28;20093;-60
2023/10/05 12:23:14;;;;;;;9.40;5.40;;;;;;;;;;4981863;28;20464;-60
2023/10/05 12:25:40;;;;;;;9.75;5.60;;;;;;;;;;4982656;28;20030;-60
2023/10/05 12:28:06;;;;;;;6.60;4.40;;;;;;;;;;4980002;28;20114;-61
2023/10/05 12:30:31;;;;;;;8.77;5.43;;;;;;;;;;4978169;28;20037;-61
2023/10/05 12:32:56;;;;;;;9.63;5.40;;;;;;;;;;4976153;28;20428;-61
2023/10/05 12:35:23;;;;;;;7.38;4.70;;;;;;;;;;4982013;28;20021;-61
2023/10/05 12:37:49;;;;;;;8.45;5.30;;;;;;;;;;4985085;28;20018;-60
2023/10/05 12:40:26;;;;;;;9.88;5.32;;;;;;;;;;4980576;28;20518;-61
2023/10/05 12:42:51;;;;;;;9.30;5.13;;;;;;;;;;4974874;28;20118;-60
2023/10/05 12:45:23;;;;;;;9.63;5.05;;;;;;;;;;4959871;28;20186;-61
2023/10/05 12:47:49;;;;;;;9.07;5.10;;;;;;;;;;4976414;28;20038;-61
2023/10/05 12:50:15;;;;;;;8.55;5.05;;;;;;;;;;4980048;28;20109;-61
2023/10/05 12:52:40;;;;;;;8.52;5.28;;;;;;;;;;4983998;28;20390;-62
2023/10/05 12:55:08;;;;;;;9.93;5.38;;;;;;;;;;4982491;28;20124;-60
2023/10/05 12:57:33;;;;;;;8.20;5.20;;;;;;;;;;4979043;28;20039;-66
2023/10/05 12:59:59;;;;;;;11.82;5.32;;;;;;;;;;4979125;28;20486;-61
2023/10/05 13:02:24;;;;;;;8.93;5.05;;;;;;;;;;4986224;28;20046;-61
2023/10/05 13:04:49;;;;;;;10.65;5.50;;;;;;;;;;4981530;28;20431;-62
2023/10/05 13:07:19;;;;;;;8.43;5.15;;;;;;;;;;4980187;28;20123;-63
2023/10/05 13:09:44;;;;;;;;;;;;;;;;;;4959481;28;20703;-61
2023/10/05 13:12:12;;;;;;;7.97;5.20;;;;;;;;;;4984001;28;19947;-60
2023/10/05 13:14:37;;;;;;;12.20;5.43;;;;;;;;;;4981710;28;20447;-62
2023/10/05 13:17:11;;;;;;;7.80;5.07;;;;;;;;;;4985826;28;20049;-60
2023/10/05 13:19:37;;;;;;;8.23;5.40;;;;;;;;;;4979375;28;20055;-60
2023/10/05 13:22:06;;;;;;;10.20;5.32;;;;;;;;;;4983725;28;20041;-60
2023/10/05 13:24:32;;;;;;;9.97;5.83;;;;;;;;;;4984404;28;20498;-61
2023/10/05 13:26:59;;;;;;;8.55;4.93;;;;;;;;;;4980634;28;20395;-62
2023/10/05 13:29:26;;;;;;;12.48;5.47;;;;;;;;;;4972894;28;20026;-61
2023/10/05 13:31:51;;;;;;;8.52;5.20;;;;;;;;;;4979896;28;20265;-62
2023/10/05 13:34:19;;;;;;;8.98;5.10;;;;;;;;;;4970523;28;20554;-60
2023/10/05 13:36:45;;;;;;;8.73;5.15;;;;;;;;;;4965900;28;20109;-61
2023/10/05 13:39:11;;;;;;;8.05;4.97;;;;;;;;;;4984860;28;20534;-61
2023/10/05 13:41:38;;;;;;;9.63;4.90;;;;;;;;;;4985493;28;20043;-61
2023/10/05 13:44:04;;;;;;;10.45;5.07;;;;;;;;;;4980743;28;20031;-61
2023/10/05 13:46:35;;;;;;;10.77;5.30;;;;;;;;;;4973691;28;20469;-61
2023/10/05 13:49:01;;;;;;;9.05;5.28;;;;;;;;;;4962944;28;20123;-60
2023/10/05 13:51:29;;;;;;;8.40;4.95;;;;;;;;;;4976523;28;20566;-63
2023/10/05 13:53:54;;;;;;;8.15;4.93;;;;;;;;;;4961929;28;20126;-62
2023/10/05 13:56:27;;;;;;;8.75;4.65;;;;;;;;;;4977229;28;20507;-60
2023/10/05 13:58:57;;;;;;;8.48;5.10;;;;;;;;;;4984373;28;20064;-61
2023/10/05 14:01:23;;;;;;;8.95;5.03;;;;;;;;;;4978609;28;20057;-62
2023/10/05 14:03:50;;;;;;;8.35;5.03;;;;;;;;;;4981410;28;20038;-61
2023/10/05 14:06:16;;;;;;;9.68;5.20;;;;;;;;;;4977909;28;20050;-62
2023/10/05 14:08:45;;;;;;;10.63;5.25;;;;;;;;;;4968223;28;20058;-62
2023/10/05 14:11:12;;;;;;;10.40;5.45;;;;;;;;;;4982551;28;20078;-61
2023/10/05 14:13:37;;;;;;;9.32;5.10;;;;;;;;;;4989152;28;20045;-63
2023/10/05 14:16:03;;;;;;;10.52;5.15;;;;;;;;;;4989617;28;20042;-63
2023/10/05 14:18:30;;;;;;;13.98;5.20;;;;;;;;;;4992268;28;20048;-61
2023/10/05 14:20:55;;;;;;;9.50;5.63;;;;;;;;;;4987401;28;20046;-61
2023/10/05 14:23:21;;;;;;;9.57;5.53;;;;;;;;;;4985066;28;20064;-61
2023/10/05 14:25:46;;;;;;;10.30;5.20;;;;;;;;;;4986976;28;20428;-60
2023/10/05 14:28:16;;;;;;;8.98;5.32;;;;;;;;;;4989286;28;20085;-61
2023/10/05 14:30:43;;;;;;;10.40;5.25;;;;;;;;;;4987752;28;20117;-61
2023/10/05 14:33:16;;;;;;;8.45;5.65;;;;;;;;;;4989570;28;20073;-61
2023/10/05 14:35:41;;;;;;;11.68;6.03;;;;;;;;;;4987615;28;20062;-61
2023/10/05 14:38:10;;;;;;;12.75;5.32;;;;;;;;;;4988756;28;20483;-61
2023/10/05 14:40:36;;;;;;;10.98;5.30;;;;;;;;;;4987317;28;20157;-61
2023/10/05 14:43:01;;;;;;;10.70;5.78;;;;;;;;;;5003683;28;20756;-61
2023/10/05 14:45:27;;;;;;;11.52;5.65;;;;;;;;;;4988750;28;20076;-62
2023/10/05 14:47:52;;;;;;;8.40;5.20;;;;;;;;;;4987255;28;20042;-61
2023/10/05 14:50:18;;;;;;;9.43;5.75;;;;;;;;;;4986898;28;20544;-61
2023/10/05 14:52:48;;;;;;;11.95;5.28;;;;;;;;;;4983954;28;20124;-61
2023/10/05 14:55:13;;;;;;;;;;;;;;;;;;4987497;28;20030;-64
2023/10/05 14:57:40;;;;;;;8.90;5.47;;;;;;;;;;4988249;28;19972;-60
2023/10/05 15:00:10;;;;;;;9.18;4.82;;;;;;;;;;4986255;28;20054;-61
2023/10/05 15:02:36;;;;;;;9.73;5.55;;;;;;;;;;4971495;28;20022;-61
2023/10/05 15:05:01;;;;;;;11.38;5.57;;;;;;;;;;4987531;28;20479;-61
2023/10/05 15:07:30;;;;;;;9.48;5.22;;;;;;;;;;4987313;28;20641;-63